sensor_id;sensor_type;location;lat;lon;timestamp;P1;durP1;ratioP1;P2;durP2;ratioP2
78197;SDS011;67472;51.554;7.812;2023-03-03T00:00:53;66.72;;;34.20;;
78197;SDS011;67472;51.554;7.812;2023-03-03T00:03:37;67.72;;;34.30;;
78197;SDS011;67472;51.554;7.812;2023-03-03T00:06:22;73.03;;;35.38;;
78197;SDS011;67472;51.554;7.812;2023-03-03T00:09:07;69.60;;;35.03;;
78197;SDS011;67472;51.554;7.812;2023-03-03T00:11:53;80.38;;;36.17;;
78197;SDS011;67472;51.554;7.812;2023-03-03T00:14:40;71.63;;;35.38;;
78197;SDS011;67472;51.554;7.812;2023-03-03T00:17:26;65.28;;;34.00;;
78197;SDS011;67472;51.554;7.812;2023-03-03T00:23:30;62.58;;;32.40;;
78197;SDS011;67472;51.554;7.812;2023-03-03T00:32:23;60.85;;;31.30;;
78197;SDS011;67472;51.554;7.812;2023-03-03T00:38:18;69.57;;;32.47;;
78197;SDS011;67472;51.554;7.812;2023-03-03T00:41:03;56.28;;;30.13;;
78197;SDS011;67472;51.554;7.812;2023-03-03T00:44:30;69.28;;;33.25;;
78197;SDS011;67472;51.554;7.812;2023-03-03T00:50:57;59.58;;;31.42;;
78197;SDS011;67472;51.554;7.812;2023-03-03T00:53:24;58.33;;;30.95;;
78197;SDS011;67472;51.554;7.812;2023-03-03T00:56:09;61.58;;;29.27;;
78197;SDS011;67472;51.554;7.812;2023-03-03T00:58:54;57.53;;;30.75;;
78197;SDS011;67472;51.554;7.812;2023-03-03T01:01:39;59.38;;;31.25;;
78197;SDS011;67472;51.554;7.812;2023-03-03T01:04:23;59.72;;;29.90;;
78197;SDS011;67472;51.554;7.812;2023-03-03T01:07:08;63.28;;;31.60;;
78197;SDS011;67472;51.554;7.812;2023-03-03T01:09:52;62.40;;;33.15;;
78197;SDS011;67472;51.554;7.812;2023-03-03T01:12:37;63.33;;;29.98;;
78197;SDS011;67472;51.554;7.812;2023-03-03T01:15:22;66.38;;;32.00;;
78197;SDS011;67472;51.554;7.812;2023-03-03T01:18:08;59.90;;;30.95;;
78197;SDS011;67472;51.554;7.812;2023-03-03T01:20:53;66.93;;;31.10;;
78197;SDS011;67472;51.554;7.812;2023-03-03T01:23:37;66.55;;;30.70;;
78197;SDS011;67472;51.554;7.812;2023-03-03T01:26:22;64.80;;;29.90;;
78197;SDS011;67472;51.554;7.812;2023-03-03T01:29:07;65.65;;;31.45;;
78197;SDS011;67472;51.554;7.812;2023-03-03T01:31:52;65.47;;;32.78;;
78197;SDS011;67472;51.554;7.812;2023-03-03T01:34:36;63.35;;;32.00;;
78197;SDS011;67472;51.554;7.812;2023-03-03T01:37:20;63.65;;;32.22;;
78197;SDS011;67472;51.554;7.812;2023-03-03T01:40:06;62.28;;;31.08;;
78197;SDS011;67472;51.554;7.812;2023-03-03T01:42:55;65.70;;;31.70;;
78197;SDS011;67472;51.554;7.812;2023-03-03T01:48:39;66.68;;;31.83;;
78197;SDS011;67472;51.554;7.812;2023-03-03T01:54:46;63.08;;;30.20;;
78197;SDS011;67472;51.554;7.812;2023-03-03T01:57:36;69.70;;;31.48;;
78197;SDS011;67472;51.554;7.812;2023-03-03T02:00:25;58.30;;;28.65;;
78197;SDS011;67472;51.554;7.812;2023-03-03T02:03:10;56.80;;;27.65;;
78197;SDS011;67472;51.554;7.812;2023-03-03T02:05:56;58.00;;;28.95;;
78197;SDS011;67472;51.554;7.812;2023-03-03T02:08:46;61.28;;;31.23;;
78197;SDS011;67472;51.554;7.812;2023-03-03T02:11:37;57.70;;;28.48;;
78197;SDS011;67472;51.554;7.812;2023-03-03T02:14:26;59.92;;;27.77;;
78197;SDS011;67472;51.554;7.812;2023-03-03T02:17:11;54.92;;;27.35;;
78197;SDS011;67472;51.554;7.812;2023-03-03T02:20:05;56.67;;;27.13;;
78197;SDS011;67472;51.554;7.812;2023-03-03T02:23:00;60.53;;;27.80;;
78197;SDS011;67472;51.554;7.812;2023-03-03T02:28:41;56.88;;;27.88;;
78197;SDS011;67472;51.554;7.812;2023-03-03T02:31:28;65.82;;;30.08;;
78197;SDS011;67472;51.554;7.812;2023-03-03T02:34:14;62.78;;;28.63;;
78197;SDS011;67472;51.554;7.812;2023-03-03T02:36:58;58.95;;;28.02;;
78197;SDS011;67472;51.554;7.812;2023-03-03T02:39:43;64.47;;;30.02;;
78197;SDS011;67472;51.554;7.812;2023-03-03T02:42:28;63.45;;;29.60;;
78197;SDS011;67472;51.554;7.812;2023-03-03T02:45:15;60.33;;;27.67;;
78197;SDS011;67472;51.554;7.812;2023-03-03T02:48:00;57.33;;;29.20;;
78197;SDS011;67472;51.554;7.812;2023-03-03T02:50:44;60.90;;;30.20;;
78197;SDS011;67472;51.554;7.812;2023-03-03T02:53:29;62.15;;;29.13;;
78197;SDS011;67472;51.554;7.812;2023-03-03T02:56:13;64.57;;;28.63;;
78197;SDS011;67472;51.554;7.812;2023-03-03T02:58:58;58.05;;;28.67;;
78197;SDS011;67472;51.554;7.812;2023-03-03T03:01:43;69.65;;;29.63;;
78197;SDS011;67472;51.554;7.812;2023-03-03T03:04:32;59.70;;;29.35;;
78197;SDS011;67472;51.554;7.812;2023-03-03T03:07:16;67.18;;;30.15;;
78197;SDS011;67472;51.554;7.812;2023-03-03T03:10:00;60.78;;;27.85;;
78197;SDS011;67472;51.554;7.812;2023-03-03T03:12:47;60.08;;;29.00;;
78197;SDS011;67472;51.554;7.812;2023-03-03T03:15:33;59.90;;;27.55;;
78197;SDS011;67472;51.554;7.812;2023-03-03T03:18:18;58.20;;;26.77;;
78197;SDS011;67472;51.554;7.812;2023-03-03T03:21:10;60.30;;;26.75;;
78197;SDS011;67472;51.554;7.812;2023-03-03T03:23:57;51.30;;;26.20;;
78197;SDS011;67472;51.554;7.812;2023-03-03T03:26:42;53.72;;;26.80;;
78197;SDS011;67472;51.554;7.812;2023-03-03T03:29:27;56.60;;;27.63;;
78197;SDS011;67472;51.554;7.812;2023-03-03T03:32:12;55.00;;;24.27;;
78197;SDS011;67472;51.554;7.812;2023-03-03T03:34:57;64.13;;;28.02;;
78197;SDS011;67472;51.554;7.812;2023-03-03T03:37:41;59.50;;;27.77;;
78197;SDS011;67472;51.554;7.812;2023-03-03T03:40:26;63.38;;;28.90;;
78197;SDS011;67472;51.554;7.812;2023-03-03T03:43:11;67.35;;;30.00;;
78197;SDS011;67472;51.554;7.812;2023-03-03T03:45:56;62.15;;;28.73;;
78197;SDS011;67472;51.554;7.812;2023-03-03T03:48:41;69.95;;;31.70;;
78197;SDS011;67472;51.554;7.812;2023-03-03T03:51:28;64.28;;;29.63;;
78197;SDS011;67472;51.554;7.812;2023-03-03T03:54:12;68.60;;;29.13;;
78197;SDS011;67472;51.554;7.812;2023-03-03T03:56:58;69.40;;;30.17;;
78197;SDS011;67472;51.554;7.812;2023-03-03T03:59:43;55.53;;;26.48;;
78197;SDS011;67472;51.554;7.812;2023-03-03T04:02:27;51.40;;;25.67;;
78197;SDS011;67472;51.554;7.812;2023-03-03T04:05:12;59.38;;;26.73;;
78197;SDS011;67472;51.554;7.812;2023-03-03T04:07:57;57.97;;;27.30;;
78197;SDS011;67472;51.554;7.812;2023-03-03T04:10:41;53.15;;;26.10;;
78197;SDS011;67472;51.554;7.812;2023-03-03T04:13:26;55.88;;;26.02;;
78197;SDS011;67472;51.554;7.812;2023-03-03T04:16:15;58.75;;;28.35;;
78197;SDS011;67472;51.554;7.812;2023-03-03T04:19:00;59.53;;;27.83;;
78197;SDS011;67472;51.554;7.812;2023-03-03T04:21:44;59.63;;;27.33;;
78197;SDS011;67472;51.554;7.812;2023-03-03T04:24:29;54.80;;;26.67;;
78197;SDS011;67472;51.554;7.812;2023-03-03T04:27:14;59.00;;;26.55;;
78197;SDS011;67472;51.554;7.812;2023-03-03T04:29:59;59.60;;;28.33;;
78197;SDS011;67472;51.554;7.812;2023-03-03T04:32:44;52.80;;;24.67;;
78197;SDS011;67472;51.554;7.812;2023-03-03T04:35:30;52.92;;;24.90;;
78197;SDS011;67472;51.554;7.812;2023-03-03T04:38:14;49.90;;;25.65;;
78197;SDS011;67472;51.554;7.812;2023-03-03T04:40:59;57.65;;;28.10;;
78197;SDS011;67472;51.554;7.812;2023-03-03T04:43:46;57.17;;;27.10;;
78197;SDS011;67472;51.554;7.812;2023-03-03T04:46:30;59.30;;;26.73;;
78197;SDS011;67472;51.554;7.812;2023-03-03T04:49:15;65.20;;;28.27;;
78197;SDS011;67472;51.554;7.812;2023-03-03T04:52:00;63.03;;;27.17;;
78197;SDS011;67472;51.554;7.812;2023-03-03T04:54:45;64.88;;;27.17;;
78197;SDS011;67472;51.554;7.812;2023-03-03T04:57:29;53.10;;;26.23;;
78197;SDS011;67472;51.554;7.812;2023-03-03T05:00:15;58.33;;;26.75;;
78197;SDS011;67472;51.554;7.812;2023-03-03T05:02:59;66.93;;;28.60;;
78197;SDS011;67472;51.554;7.812;2023-03-03T05:05:45;66.45;;;28.52;;
78197;SDS011;67472;51.554;7.812;2023-03-03T05:08:30;76.65;;;31.45;;
78197;SDS011;67472;51.554;7.812;2023-03-03T05:11:14;65.55;;;28.70;;
78197;SDS011;67472;51.554;7.812;2023-03-03T05:13:59;62.35;;;29.35;;
78197;SDS011;67472;51.554;7.812;2023-03-03T05:16:43;68.32;;;29.25;;
78197;SDS011;67472;51.554;7.812;2023-03-03T05:19:29;57.90;;;27.17;;
78197;SDS011;67472;51.554;7.812;2023-03-03T05:22:14;59.92;;;27.85;;
78197;SDS011;67472;51.554;7.812;2023-03-03T05:24:58;62.20;;;29.77;;
78197;SDS011;67472;51.554;7.812;2023-03-03T05:27:43;64.90;;;29.50;;
78197;SDS011;67472;51.554;7.812;2023-03-03T05:30:28;74.97;;;30.45;;
78197;SDS011;67472;51.554;7.812;2023-03-03T05:33:13;78.43;;;31.77;;
78197;SDS011;67472;51.554;7.812;2023-03-03T05:35:59;70.22;;;28.00;;
78197;SDS011;67472;51.554;7.812;2023-03-03T05:38:43;62.88;;;27.25;;
78197;SDS011;67472;51.554;7.812;2023-03-03T05:41:28;56.28;;;26.52;;
78197;SDS011;67472;51.554;7.812;2023-03-03T05:44:12;59.88;;;26.73;;
78197;SDS011;67472;51.554;7.812;2023-03-03T05:46:57;57.22;;;25.92;;
78197;SDS011;67472;51.554;7.812;2023-03-03T05:49:41;55.53;;;26.10;;
78197;SDS011;67472;51.554;7.812;2023-03-03T05:52:26;50.40;;;24.00;;
78197;SDS011;67472;51.554;7.812;2023-03-03T05:55:10;46.90;;;24.08;;
78197;SDS011;67472;51.554;7.812;2023-03-03T05:57:55;51.20;;;26.55;;
78197;SDS011;67472;51.554;7.812;2023-03-03T06:00:39;49.78;;;24.38;;
78197;SDS011;67472;51.554;7.812;2023-03-03T06:03:24;50.60;;;23.40;;
78197;SDS011;67472;51.554;7.812;2023-03-03T06:06:08;49.78;;;24.05;;
78197;SDS011;67472;51.554;7.812;2023-03-03T06:08:53;41.55;;;23.25;;
78197;SDS011;67472;51.554;7.812;2023-03-03T06:11:37;43.25;;;22.67;;
78197;SDS011;67472;51.554;7.812;2023-03-03T06:14:22;48.72;;;23.48;;
78197;SDS011;67472;51.554;7.812;2023-03-03T06:17:06;43.97;;;22.80;;
78197;SDS011;67472;51.554;7.812;2023-03-03T06:19:51;45.80;;;23.17;;
78197;SDS011;67472;51.554;7.812;2023-03-03T06:22:35;40.75;;;21.58;;
78197;SDS011;67472;51.554;7.812;2023-03-03T06:25:20;44.10;;;23.35;;
78197;SDS011;67472;51.554;7.812;2023-03-03T06:28:04;44.03;;;22.50;;
78197;SDS011;67472;51.554;7.812;2023-03-03T06:30:52;44.22;;;22.83;;
78197;SDS011;67472;51.554;7.812;2023-03-03T06:33:39;49.53;;;23.27;;
78197;SDS011;67472;51.554;7.812;2023-03-03T06:36:25;48.92;;;23.38;;
78197;SDS011;67472;51.554;7.812;2023-03-03T06:39:10;47.83;;;23.08;;
78197;SDS011;67472;51.554;7.812;2023-03-03T06:41:54;51.10;;;24.08;;
78197;SDS011;67472;51.554;7.812;2023-03-03T06:44:39;46.28;;;22.45;;
78197;SDS011;67472;51.554;7.812;2023-03-03T06:47:23;52.80;;;24.25;;
78197;SDS011;67472;51.554;7.812;2023-03-03T06:50:09;51.22;;;25.50;;
78197;SDS011;67472;51.554;7.812;2023-03-03T06:53:05;47.13;;;25.17;;
78197;SDS011;67472;51.554;7.812;2023-03-03T06:55:55;62.08;;;27.83;;
78197;SDS011;67472;51.554;7.812;2023-03-03T06:58:41;53.95;;;26.15;;
78197;SDS011;67472;51.554;7.812;2023-03-03T07:01:25;57.05;;;26.20;;
78197;SDS011;67472;51.554;7.812;2023-03-03T07:04:48;59.97;;;26.70;;
78197;SDS011;67472;51.554;7.812;2023-03-03T07:07:25;55.47;;;25.45;;
78197;SDS011;67472;51.554;7.812;2023-03-03T07:13:23;58.65;;;26.33;;
78197;SDS011;67472;51.554;7.812;2023-03-03T07:16:10;58.67;;;25.88;;
78197;SDS011;67472;51.554;7.812;2023-03-03T07:18:57;56.50;;;25.30;;
78197;SDS011;67472;51.554;7.812;2023-03-03T07:21:44;56.15;;;25.25;;
78197;SDS011;67472;51.554;7.812;2023-03-03T07:24:29;55.25;;;25.95;;
78197;SDS011;67472;51.554;7.812;2023-03-03T07:30:24;54.72;;;25.73;;
78197;SDS011;67472;51.554;7.812;2023-03-03T07:33:23;61.55;;;26.60;;
78197;SDS011;67472;51.554;7.812;2023-03-03T07:36:29;63.33;;;27.52;;
78197;SDS011;67472;51.554;7.812;2023-03-03T07:42:14;56.28;;;26.20;;
78197;SDS011;67472;51.554;7.812;2023-03-03T07:45:30;59.80;;;26.45;;
78197;SDS011;67472;51.554;7.812;2023-03-03T07:48:25;52.03;;;23.85;;
78197;SDS011;67472;51.554;7.812;2023-03-03T07:51:20;51.03;;;23.98;;
78197;SDS011;67472;51.554;7.812;2023-03-03T07:54:34;62.20;;;25.98;;
78197;SDS011;67472;51.554;7.812;2023-03-03T07:57:44;58.25;;;24.90;;
78197;SDS011;67472;51.554;7.812;2023-03-03T08:03:14;58.35;;;26.15;;
78197;SDS011;67472;51.554;7.812;2023-03-03T08:06:10;61.13;;;26.60;;
78197;SDS011;67472;51.554;7.812;2023-03-03T08:09:38;67.70;;;28.50;;
78197;SDS011;67472;51.554;7.812;2023-03-03T08:12:30;64.03;;;27.02;;
78197;SDS011;67472;51.554;7.812;2023-03-03T08:15:20;63.17;;;26.63;;
78197;SDS011;67472;51.554;7.812;2023-03-03T08:18:15;64.45;;;26.92;;
78197;SDS011;67472;51.554;7.812;2023-03-03T08:21:24;54.60;;;25.55;;
78197;SDS011;67472;51.554;7.812;2023-03-03T08:24:09;58.00;;;28.67;;
78197;SDS011;67472;51.554;7.812;2023-03-03T08:26:53;58.58;;;26.20;;
78197;SDS011;67472;51.554;7.812;2023-03-03T08:29:38;62.05;;;27.98;;
78197;SDS011;67472;51.554;7.812;2023-03-03T08:32:22;62.58;;;27.45;;
78197;SDS011;67472;51.554;7.812;2023-03-03T08:35:07;58.42;;;26.35;;
78197;SDS011;67472;51.554;7.812;2023-03-03T08:37:51;57.38;;;25.63;;
78197;SDS011;67472;51.554;7.812;2023-03-03T08:40:36;54.40;;;26.05;;
78197;SDS011;67472;51.554;7.812;2023-03-03T08:43:21;54.30;;;25.38;;
78197;SDS011;67472;51.554;7.812;2023-03-03T08:46:06;51.58;;;24.23;;
78197;SDS011;67472;51.554;7.812;2023-03-03T08:48:53;58.08;;;25.85;;
78197;SDS011;67472;51.554;7.812;2023-03-03T08:51:37;58.55;;;25.25;;
78197;SDS011;67472;51.554;7.812;2023-03-03T08:54:22;62.75;;;25.70;;
78197;SDS011;67472;51.554;7.812;2023-03-03T08:57:06;51.42;;;21.05;;
78197;SDS011;67472;51.554;7.812;2023-03-03T08:59:50;66.65;;;25.60;;
78197;SDS011;67472;51.554;7.812;2023-03-03T09:02:35;54.25;;;24.40;;
78197;SDS011;67472;51.554;7.812;2023-03-03T09:05:20;54.47;;;23.52;;
78197;SDS011;67472;51.554;7.812;2023-03-03T09:08:06;54.50;;;22.95;;
78197;SDS011;67472;51.554;7.812;2023-03-03T09:10:51;53.75;;;23.02;;
78197;SDS011;67472;51.554;7.812;2023-03-03T09:13:35;54.35;;;22.75;;
78197;SDS011;67472;51.554;7.812;2023-03-03T09:16:20;55.70;;;23.85;;
78197;SDS011;67472;51.554;7.812;2023-03-03T09:19:24;57.88;;;23.83;;
78197;SDS011;67472;51.554;7.812;2023-03-03T09:22:19;50.67;;;22.00;;
78197;SDS011;67472;51.554;7.812;2023-03-03T09:25:13;53.03;;;21.25;;
78197;SDS011;67472;51.554;7.812;2023-03-03T09:28:08;52.47;;;21.20;;
78197;SDS011;67472;51.554;7.812;2023-03-03T09:31:16;48.58;;;21.48;;
78197;SDS011;67472;51.554;7.812;2023-03-03T09:37:26;45.22;;;19.60;;
78197;SDS011;67472;51.554;7.812;2023-03-03T09:40:27;48.63;;;20.95;;
78197;SDS011;67472;51.554;7.812;2023-03-03T09:43:36;48.50;;;19.38;;
78197;SDS011;67472;51.554;7.812;2023-03-03T09:50:14;48.60;;;19.75;;
78197;SDS011;67472;51.554;7.812;2023-03-03T09:56:25;43.45;;;18.90;;
78197;SDS011;67472;51.554;7.812;2023-03-03T09:59:48;43.95;;;18.55;;
78197;SDS011;67472;51.554;7.812;2023-03-03T10:05:51;43.63;;;18.58;;
78197;SDS011;67472;51.554;7.812;2023-03-03T10:11:46;50.20;;;19.73;;
78197;SDS011;67472;51.554;7.812;2023-03-03T10:17:51;46.80;;;18.48;;
78197;SDS011;67472;51.554;7.812;2023-03-03T10:24:01;57.60;;;22.25;;
78197;SDS011;67472;51.554;7.812;2023-03-03T10:30:03;52.55;;;20.70;;
78197;SDS011;67472;51.554;7.812;2023-03-03T10:35:56;52.70;;;21.25;;
78197;SDS011;67472;51.554;7.812;2023-03-03T10:47:54;61.88;;;23.67;;
78197;SDS011;67472;51.554;7.812;2023-03-03T11:05:54;54.85;;;20.52;;
78197;SDS011;67472;51.554;7.812;2023-03-03T11:08:55;61.58;;;23.13;;
78197;SDS011;67472;51.554;7.812;2023-03-03T11:15:25;66.68;;;24.52;;
78197;SDS011;67472;51.554;7.812;2023-03-03T11:18:37;59.15;;;22.73;;
78197;SDS011;67472;51.554;7.812;2023-03-03T11:21:33;58.15;;;21.00;;
78197;SDS011;67472;51.554;7.812;2023-03-03T11:24:27;52.85;;;21.02;;
78197;SDS011;67472;51.554;7.812;2023-03-03T11:33:44;55.63;;;23.55;;
78197;SDS011;67472;51.554;7.812;2023-03-03T11:36:31;56.40;;;23.25;;
78197;SDS011;67472;51.554;7.812;2023-03-03T11:39:22;60.70;;;21.95;;
78197;SDS011;67472;51.554;7.812;2023-03-03T11:45:10;59.47;;;22.15;;
78197;SDS011;67472;51.554;7.812;2023-03-03T11:48:05;51.72;;;19.95;;
78197;SDS011;67472;51.554;7.812;2023-03-03T11:54:00;54.30;;;20.50;;
78197;SDS011;67472;51.554;7.812;2023-03-03T11:56:49;53.20;;;20.42;;
78197;SDS011;67472;51.554;7.812;2023-03-03T11:59:47;49.88;;;20.00;;
78197;SDS011;67472;51.554;7.812;2023-03-03T12:20:32;50.92;;;20.15;;
78197;SDS011;67472;51.554;7.812;2023-03-03T12:29:41;45.67;;;18.75;;
78197;SDS011;67472;51.554;7.812;2023-03-03T12:46:22;53.67;;;20.92;;
78197;SDS011;67472;51.554;7.812;2023-03-03T12:48:47;53.25;;;19.83;;
78197;SDS011;67472;51.554;7.812;2023-03-03T12:51:58;43.15;;;18.27;;
78197;SDS011;67472;51.554;7.812;2023-03-03T13:06:47;49.90;;;21.23;;
78197;SDS011;67472;51.554;7.812;2023-03-03T13:13:22;47.03;;;18.30;;
78197;SDS011;67472;51.554;7.812;2023-03-03T13:19:40;50.60;;;18.90;;
78197;SDS011;67472;51.554;7.812;2023-03-03T13:25:34;48.35;;;18.42;;
78197;SDS011;67472;51.554;7.812;2023-03-03T13:31:20;45.05;;;17.83;;
78197;SDS011;67472;51.554;7.812;2023-03-03T13:34:19;45.38;;;18.45;;
78197;SDS011;67472;51.554;7.812;2023-03-03T13:37:20;50.38;;;19.83;;
78197;SDS011;67472;51.554;7.812;2023-03-03T13:40:44;44.90;;;17.25;;
78197;SDS011;67472;51.554;7.812;2023-03-03T13:43:30;49.20;;;18.00;;
78197;SDS011;67472;51.554;7.812;2023-03-03T13:49:18;41.85;;;18.42;;
78197;SDS011;67472;51.554;7.812;2023-03-03T13:52:24;47.30;;;19.35;;
78197;SDS011;67472;51.554;7.812;2023-03-03T14:01:22;49.15;;;18.05;;
78197;SDS011;67472;51.554;7.812;2023-03-03T14:04:28;45.17;;;18.60;;
78197;SDS011;67472;51.554;7.812;2023-03-03T14:13:10;47.97;;;19.33;;
78197;SDS011;67472;51.554;7.812;2023-03-03T14:15:57;40.95;;;18.70;;
78197;SDS011;67472;51.554;7.812;2023-03-03T14:18:55;41.95;;;18.15;;
78197;SDS011;67472;51.554;7.812;2023-03-03T14:21:48;46.58;;;19.98;;
78197;SDS011;67472;51.554;7.812;2023-03-03T14:30:35;46.05;;;20.55;;
78197;SDS011;67472;51.554;7.812;2023-03-03T14:33:25;43.38;;;18.88;;
78197;SDS011;67472;51.554;7.812;2023-03-03T14:36:13;49.58;;;19.60;;
78197;SDS011;67472;51.554;7.812;2023-03-03T14:38:59;49.40;;;19.98;;
78197;SDS011;67472;51.554;7.812;2023-03-03T14:41:44;50.70;;;22.95;;
78197;SDS011;67472;51.554;7.812;2023-03-03T14:44:31;47.50;;;20.77;;
78197;SDS011;67472;51.554;7.812;2023-03-03T14:47:23;44.90;;;18.50;;
78197;SDS011;67472;51.554;7.812;2023-03-03T14:50:47;45.88;;;19.58;;
78197;SDS011;67472;51.554;7.812;2023-03-03T14:53:32;43.47;;;17.42;;
78197;SDS011;67472;51.554;7.812;2023-03-03T14:59:16;43.15;;;18.35;;
78197;SDS011;67472;51.554;7.812;2023-03-03T15:05:16;40.28;;;17.27;;
78197;SDS011;67472;51.554;7.812;2023-03-03T15:08:10;42.90;;;18.08;;
78197;SDS011;67472;51.554;7.812;2023-03-03T15:11:18;38.65;;;15.63;;
78197;SDS011;67472;51.554;7.812;2023-03-03T15:14:15;36.95;;;17.02;;
78197;SDS011;67472;51.554;7.812;2023-03-03T15:17:18;33.85;;;15.98;;
78197;SDS011;67472;51.554;7.812;2023-03-03T15:38:24;39.38;;;17.45;;
78197;SDS011;67472;51.554;7.812;2023-03-03T15:41:18;34.53;;;16.42;;
78197;SDS011;67472;51.554;7.812;2023-03-03T15:47:23;38.65;;;17.70;;
78197;SDS011;67472;51.554;7.812;2023-03-03T15:50:23;42.53;;;17.65;;
78197;SDS011;67472;51.554;7.812;2023-03-03T15:53:28;38.45;;;17.67;;
78197;SDS011;67472;51.554;7.812;2023-03-03T15:56:48;39.90;;;16.90;;
78197;SDS011;67472;51.554;7.812;2023-03-03T16:02:38;34.60;;;16.25;;
78197;SDS011;67472;51.554;7.812;2023-03-03T16:05:33;35.70;;;16.40;;
78197;SDS011;67472;51.554;7.812;2023-03-03T16:08:29;32.85;;;16.33;;
78197;SDS011;67472;51.554;7.812;2023-03-03T16:11:25;35.60;;;16.05;;
78197;SDS011;67472;51.554;7.812;2023-03-03T16:21:12;33.85;;;15.35;;
78197;SDS011;67472;51.554;7.812;2023-03-03T16:24:05;32.47;;;15.10;;
78197;SDS011;67472;51.554;7.812;2023-03-03T16:33:12;34.65;;;14.93;;
78197;SDS011;67472;51.554;7.812;2023-03-03T16:42:30;34.00;;;14.77;;
78197;SDS011;67472;51.554;7.812;2023-03-03T16:48:20;37.35;;;17.10;;
78197;SDS011;67472;51.554;7.812;2023-03-03T16:54:08;32.05;;;15.98;;
78197;SDS011;67472;51.554;7.812;2023-03-03T17:08:50;32.95;;;15.68;;
78197;SDS011;67472;51.554;7.812;2023-03-03T17:12:07;39.28;;;16.83;;
78197;SDS011;67472;51.554;7.812;2023-03-03T17:30:32;37.17;;;16.90;;
78197;SDS011;67472;51.554;7.812;2023-03-03T17:39:45;40.42;;;18.45;;
78197;SDS011;67472;51.554;7.812;2023-03-03T17:45:43;40.80;;;18.42;;
78197;SDS011;67472;51.554;7.812;2023-03-03T17:48:37;49.67;;;20.90;;
78197;SDS011;67472;51.554;7.812;2023-03-03T17:54:58;50.08;;;20.48;;
78197;SDS011;67472;51.554;7.812;2023-03-03T18:04:15;45.50;;;19.90;;
78197;SDS011;67472;51.554;7.812;2023-03-03T18:07:14;47.30;;;20.73;;
78197;SDS011;67472;51.554;7.812;2023-03-03T18:13:49;39.92;;;18.95;;
78197;SDS011;67472;51.554;7.812;2023-03-03T18:23:28;48.80;;;20.85;;
78197;SDS011;67472;51.554;7.812;2023-03-03T18:29:17;42.17;;;19.08;;
78197;SDS011;67472;51.554;7.812;2023-03-03T18:32:16;47.38;;;20.00;;
78197;SDS011;67472;51.554;7.812;2023-03-03T18:38:23;42.60;;;18.48;;
78197;SDS011;67472;51.554;7.812;2023-03-03T18:41:10;43.47;;;20.10;;
78197;SDS011;67472;51.554;7.812;2023-03-03T18:43:59;42.88;;;19.38;;
78197;SDS011;67472;51.554;7.812;2023-03-03T18:46:47;39.67;;;18.38;;
78197;SDS011;67472;51.554;7.812;2023-03-03T18:56:00;44.33;;;19.25;;
78197;SDS011;67472;51.554;7.812;2023-03-03T18:58:47;46.20;;;20.63;;
78197;SDS011;67472;51.554;7.812;2023-03-03T19:01:43;46.03;;;20.50;;
78197;SDS011;67472;51.554;7.812;2023-03-03T19:04:31;44.55;;;19.88;;
78197;SDS011;67472;51.554;7.812;2023-03-03T19:07:20;47.00;;;19.83;;
78197;SDS011;67472;51.554;7.812;2023-03-03T19:13:12;53.90;;;21.35;;
78197;SDS011;67472;51.554;7.812;2023-03-03T19:19:12;39.35;;;18.83;;
78197;SDS011;67472;51.554;7.812;2023-03-03T19:22:18;45.28;;;20.25;;
78197;SDS011;67472;51.554;7.812;2023-03-03T19:36:51;61.72;;;22.67;;
78197;SDS011;67472;51.554;7.812;2023-03-03T19:42:58;52.03;;;20.98;;
78197;SDS011;67472;51.554;7.812;2023-03-03T19:48:53;53.75;;;22.35;;
78197;SDS011;67472;51.554;7.812;2023-03-03T19:55:03;51.42;;;20.63;;
78197;SDS011;67472;51.554;7.812;2023-03-03T20:04:02;48.30;;;20.67;;
78197;SDS011;67472;51.554;7.812;2023-03-03T20:07:03;49.28;;;22.20;;
78197;SDS011;67472;51.554;7.812;2023-03-03T20:21:31;46.22;;;22.80;;
78197;SDS011;67472;51.554;7.812;2023-03-03T20:33:45;47.85;;;21.63;;
78197;SDS011;67472;51.554;7.812;2023-03-03T20:40:04;46.80;;;23.00;;
78197;SDS011;67472;51.554;7.812;2023-03-03T20:43:28;54.45;;;23.90;;
78197;SDS011;67472;51.554;7.812;2023-03-03T20:55:34;53.97;;;23.90;;
78197;SDS011;67472;51.554;7.812;2023-03-03T21:05:05;46.05;;;22.58;;
78197;SDS011;67472;51.554;7.812;2023-03-03T21:10:38;52.35;;;22.15;;
78197;SDS011;67472;51.554;7.812;2023-03-03T21:19:10;44.72;;;20.52;;
78197;SDS011;67472;51.554;7.812;2023-03-03T21:21:55;41.25;;;19.92;;
78197;SDS011;67472;51.554;7.812;2023-03-03T21:24:51;42.53;;;20.13;;
78197;SDS011;67472;51.554;7.812;2023-03-03T21:27:38;39.25;;;19.30;;
78197;SDS011;67472;51.554;7.812;2023-03-03T21:30:22;41.92;;;18.58;;
78197;SDS011;67472;51.554;7.812;2023-03-03T21:33:07;40.22;;;18.83;;
78197;SDS011;67472;51.554;7.812;2023-03-03T21:35:57;39.58;;;17.83;;
78197;SDS011;67472;51.554;7.812;2023-03-03T21:38:42;41.63;;;18.55;;
78197;SDS011;67472;51.554;7.812;2023-03-03T21:41:31;41.03;;;18.30;;
78197;SDS011;67472;51.554;7.812;2023-03-03T21:44:37;39.90;;;18.33;;
78197;SDS011;67472;51.554;7.812;2023-03-03T21:47:30;39.90;;;20.45;;
78197;SDS011;67472;51.554;7.812;2023-03-03T21:50:14;42.35;;;19.00;;
78197;SDS011;67472;51.554;7.812;2023-03-03T21:53:00;36.95;;;18.23;;
78197;SDS011;67472;51.554;7.812;2023-03-03T21:55:44;36.70;;;18.38;;
78197;SDS011;67472;51.554;7.812;2023-03-03T21:58:31;37.63;;;18.38;;
78197;SDS011;67472;51.554;7.812;2023-03-03T22:01:16;40.58;;;20.05;;
78197;SDS011;67472;51.554;7.812;2023-03-03T22:04:00;42.60;;;20.65;;
78197;SDS011;67472;51.554;7.812;2023-03-03T22:06:44;46.08;;;20.45;;
78197;SDS011;67472;51.554;7.812;2023-03-03T22:09:29;41.00;;;20.80;;
78197;SDS011;67472;51.554;7.812;2023-03-03T22:12:13;37.53;;;19.13;;
78197;SDS011;67472;51.554;7.812;2023-03-03T22:14:58;46.78;;;22.27;;
78197;SDS011;67472;51.554;7.812;2023-03-03T22:17:42;42.15;;;20.25;;
78197;SDS011;67472;51.554;7.812;2023-03-03T22:20:28;43.03;;;19.60;;
78197;SDS011;67472;51.554;7.812;2023-03-03T22:23:15;38.05;;;19.00;;
78197;SDS011;67472;51.554;7.812;2023-03-03T22:26:01;38.63;;;19.52;;
78197;SDS011;67472;51.554;7.812;2023-03-03T22:28:47;41.45;;;19.08;;
78197;SDS011;67472;51.554;7.812;2023-03-03T22:31:31;41.60;;;19.42;;
78197;SDS011;67472;51.554;7.812;2023-03-03T22:34:16;42.92;;;19.20;;
78197;SDS011;67472;51.554;7.812;2023-03-03T22:37:00;37.88;;;18.85;;
78197;SDS011;67472;51.554;7.812;2023-03-03T22:39:45;38.17;;;20.27;;
78197;SDS011;67472;51.554;7.812;2023-03-03T22:42:30;38.35;;;18.85;;
78197;SDS011;67472;51.554;7.812;2023-03-03T22:45:14;32.45;;;18.75;;
78197;SDS011;67472;51.554;7.812;2023-03-03T22:47:58;39.03;;;19.55;;
78197;SDS011;67472;51.554;7.812;2023-03-03T22:50:43;45.83;;;20.83;;
78197;SDS011;67472;51.554;7.812;2023-03-03T22:53:28;38.67;;;19.10;;
78197;SDS011;67472;51.554;7.812;2023-03-03T22:56:12;37.08;;;18.95;;
78197;SDS011;67472;51.554;7.812;2023-03-03T22:58:57;38.22;;;18.42;;
78197;SDS011;67472;51.554;7.812;2023-03-03T23:01:41;39.00;;;19.23;;
78197;SDS011;67472;51.554;7.812;2023-03-03T23:04:26;34.88;;;17.08;;
78197;SDS011;67472;51.554;7.812;2023-03-03T23:07:10;36.63;;;18.90;;
78197;SDS011;67472;51.554;7.812;2023-03-03T23:09:55;34.25;;;19.00;;